Data for 01/26/2015

Time Sea-Level Adjusted Pressure Absolute Pressure Temperature Relative Humidity Dew Point   
(mb) (inHg) (mb) (inHg) (C) (F) (%) (C) (F)
00:05 1025 30.27 854 25.22 8.9 48 40 -4 24.9
00:10 1025 30.27 854 25.22 8.7 47.7 41 -3.8 25.1
00:15 1025 30.27 854 25.22 8.6 47.5 42 -3.7 25.4
00:20 1025 30.27 854 25.22 8.3 46.9 43 -3.6 25.5
00:25 1025 30.27 854 25.22 8.2 46.7 43 -3.6 25.4
00:30 1025 30.27 854 25.22 8 46.4 44 -3.5 25.7
00:35 1025 30.27 854 25.22 7.7 45.8 46 -3.3 26.1
00:40 1025 30.27 854 25.22 7.2 45 47 -3.2 26.2
00:45 1025 30.27 854 25.22 7 44.6 49 -3 26.7
00:50 1025 30.27 854 25.22 6.6 43.9 50 -3 26.6
00:55 1025 30.27 854 25.22 6.5 43.6 50 -3.1 26.3
01:00 1025 30.27 854 25.22 6.4 43.5 51 -3 26.6
01:05 1025 30.27 854 25.22 6.2 43.2 52 -2.8 26.9
01:10 1025 30.27 854 25.22 6 42.9 53 -2.9 26.8
01:15 1025 30.27 854 25.22 5.8 42.5 54 -2.7 27.2
01:20 1025 30.27 854 25.22 5.7 42.3 53 -3.1 26.4
01:25 1025 30.27 854 25.22 5.9 42.7 52 -3.1 26.4
01:30 1025 30.27 854 25.22 6.2 43.1 51 -3.3 26.1
01:35 1025 30.27 854 25.22 6.4 43.6 50 -3.2 26.2
01:40 1025 30.27 854 25.22 6.3 43.3 52 -2.9 26.7
01:45 1025 30.27 854 25.22 5.9 42.7 53 -3 26.5
01:50 1025 30.27 854 25.22 5.8 42.5 53 -3 26.5
01:55 1025 30.27 854 25.22 5.7 42.3 53 -3.1 26.5
02:00 1025 30.27 854 25.22 5.7 42.2 54 -2.8 26.9
02:05 1025 30.27 854 25.22 5.3 41.5 55 -3 26.7
02:10 1025 30.27 854 25.22 5 41 58 -2.7 27.2
02:15 1025 30.27 854 25.22 4.7 40.4 57 -3.1 26.5
02:20 1025 30.27 854 25.22 5.2 41.3 55 -3.1 26.3
02:25 1025 30.27 854 25.22 4.9 40.9 57 -2.9 26.7
02:30 1025 30.27 854 25.22 4.8 40.6 57 -3 26.6
02:35 1025 30.27 854 25.22 5 41 55 -3.3 26.1
02:40 1025 30.27 854 25.22 5.3 41.5 55 -3 26.5
02:45 1025 30.27 854 25.22 5.3 41.6 56 -2.9 26.8
02:50 1025 30.27 854 25.22 4.8 40.7 57 -3 26.7
02:55 1025 30.27 854 25.22 4.9 40.8 56 -3.2 26.3
03:00 1025 30.27 854 25.22 5.4 41.7 54 -3.2 26.3
03:05 1025 30.27 854 25.22 5.3 41.6 53 -3.4 25.9
03:10 1025 30.27 854 25.22 5.5 41.9 53 -3.3 26.1
03:15 1025 30.27 854 25.22 5.4 41.7 54 -3.2 26.3
03:20 1025 30.27 854 25.22 5.3 41.5 53 -3.5 25.8
03:25 1025 30.27 854 25.22 5.5 41.9 52 -3.6 25.6
03:30 1025 30.27 854 25.22 5.4 41.8 53 -3.4 25.8
03:35 1025 30.27 854 25.22 5.7 42.3 51 -3.7 25.4
03:40 1025 30.27 854 25.22 5.9 42.7 50 -3.7 25.3
03:45 1025 30.27 854 25.22 5.9 42.6 51 -3.5 25.8
03:50 1025 30.27 854 25.22 5.5 41.9 54 -3.2 26.3
03:55 1025 30.27 854 25.22 5.2 41.3 54 -3.3 26
04:00 1025 30.27 854 25.22 5.1 41.2 55 -3.2 26.2
04:05 1025 30.27 854 25.22 5 41 56 -3.1 26.4
04:10 1025 30.27 854 25.22 4.8 40.6 56 -3.2 26.2
04:15 1025 30.27 854 25.22 4.6 40.2 57 -3.2 26.3
04:20 1025 30.27 854 25.22 4.5 40.1 57 -3.3 26.1
04:25 1025 30.27 854 25.22 4.5 40 57 -3.4 25.8
04:30 1025 30.27 854 25.22 4.4 39.8 58 -3.3 26.1
04:35 1024 30.24 854 25.22 3.7 38.7 59 -3.6 25.5
04:40 1025 30.27 854 25.22 3.8 38.8 58 -3.6 25.4
04:45 1024 30.24 854 25.22 4.2 39.5 56 -3.7 25.3
04:50 1024 30.24 854 25.22 4.6 40.3 54 -3.8 25.1
04:55 1024 30.24 854 25.22 4.9 40.8 53 -3.8 25.1
05:00 1024 30.24 853 25.19 5 41.1 53 -3.8 25.2
05:05 1024 30.24 853 25.19 4.8 40.7 54 -3.7 25.4
05:10 1024 30.24 853 25.19 4.3 39.8 56 -3.7 25.4
05:15 1024 30.24 853 25.19 4.4 39.9 56 -3.6 25.4
05:20 1024 30.24 853 25.19 3.9 39 58 -3.7 25.4
05:25 1024 30.24 853 25.19 4.2 39.5 56 -3.9 25
05:30 1024 30.24 853 25.19 4.1 39.4 57 -3.8 25.2
05:35 1024 30.24 853 25.19 4 39.1 58 -3.7 25.4
05:40 1024 30.24 854 25.22 4.1 39.4 56 -4 24.9
05:45 1024 30.24 853 25.19 4.6 40.3 54 -4 24.8
05:50 1024 30.24 854 25.22 4.6 40.3 55 -3.7 25.3
05:55 1024 30.24 854 25.22 4.3 39.7 56 -3.7 25.3
06:00 1024 30.24 854 25.22 4 39.2 57 -3.8 25.1
06:05 1024 30.24 854 25.22 3.8 38.9 57 -3.8 25.1
06:10 1024 30.24 854 25.22 3.7 38.6 58 -3.8 25.1
06:15 1024 30.24 854 25.22 3.6 38.5 59 -3.7 25.4
06:20 1024 30.24 854 25.22 3.3 37.9 60 -3.8 25.2
06:25 1024 30.24 854 25.22 3 37.4 61 -3.9 25.1
06:30 1024 30.24 854 25.22 3 37.3 61 -3.8 25.2
06:35 1024 30.24 854 25.22 2.9 37.2 61 -3.9 25
06:40 1024 30.24 853 25.19 2.9 37.2 60 -4.1 24.7
06:45 1024 30.24 853 25.19 2.9 37.3 60 -4 24.8
06:50 1024 30.24 853 25.19 3 37.4 61 -3.9 25.1
06:55 1024 30.24 853 25.19 3.1 37.6 59 -4 24.8
07:00 1024 30.24 853 25.19 3.4 38.1 59 -3.9 24.9
07:05 1024 30.24 853 25.19 3.2 37.7 59 -4 24.9
07:10 1024 30.24 853 25.19 3.4 38.2 57 -4.2 24.4
07:15 1024 30.24 853 25.19 4.2 39.6 56 -3.9 25
07:20 1024 30.24 853 25.19 4.4 39.9 56 -3.7 25.4
07:25 1024 30.24 853 25.19 4.1 39.5 56 -3.8 25.2
07:30 1024 30.24 853 25.19 4.1 39.4 58 -3.4 25.9
07:35 1024 30.24 853 25.19 3.7 38.7 59 -3.5 25.7
07:40 1024 30.24 853 25.19 3.4 38 60 -3.7 25.3
07:45 1024 30.24 853 25.19 3.5 38.3 59 -3.7 25.4
07:50 1024 30.24 853 25.19 3.6 38.5 58 -3.9 25
07:55 1024 30.24 853 25.19 4.2 39.5 56 -3.9 25
08:00 1024 30.24 853 25.19 4.4 40 55 -3.9 25
08:05 1024 30.24 853 25.19 4.8 40.6 53 -4 24.8
08:10 1024 30.24 853 25.19 4.6 40.3 55 -3.6 25.6
08:15 1024 30.24 853 25.19 4.6 40.3 53 -4.2 24.4
08:20 1024 30.24 853 25.19 4.8 40.7 53 -4 24.8
08:25 1024 30.24 853 25.19 4.7 40.4 54 -3.9 25
08:30 1024 30.24 853 25.19 4.1 39.4 57 -3.7 25.4
08:35 1024 30.24 853 25.19 3.2 37.8 59 -4 24.9
08:40 1024 30.24 853 25.19 2.8 37 60 -4.1 24.6
08:45 1024 30.24 853 25.19 3.1 37.6 58 -4.3 24.2
08:50 1024 30.24 853 25.19 3.4 38.2 57 -4.4 24.1
08:55 1024 30.24 853 25.19 4.1 39.4 54 -4.5 23.9
09:00 1024 30.24 853 25.19 4.6 40.2 53 -4.2 24.5
09:05 1024 30.24 853 25.19 4.7 40.5 53 -4.1 24.5
09:10 1024 30.24 853 25.19 4.7 40.5 54 -3.8 25.2
09:15 1024 30.24 853 25.19 4.5 40 53 -4.2 24.5
09:20 1024 30.24 853 25.19 5 40.9 51 -4.2 24.4
09:25 1024 30.24 853 25.19 5.2 41.4 52 -3.9 25
09:30 1024 30.24 853 25.19 5 41 52 -4 24.9
09:35 1024 30.24 853 25.19 5 41.1 52 -4 24.9
09:40 1024 30.24 853 25.19 4.4 39.9 55 -3.8 25.2
09:45 1024 30.24 853 25.19 4.2 39.5 56 -3.9 25
09:50 1024 30.24 853 25.19 4.5 40.1 53 -4.2 24.5
09:55 1024 30.24 853 25.19 5 40.9 52 -4.2 24.5
10:00 1024 30.24 853 25.19 5.3 41.6 51 -4.1 24.7
10:05 1024 30.24 853 25.19 5.4 41.8 51 -3.8 25.1
10:10 1024 30.24 853 25.19 5.3 41.5 52 -3.7 25.3
10:15 1024 30.24 853 25.19 5.2 41.4 52 -3.9 25.1
10:20 1024 30.24 853 25.19 5.3 41.5 51 -3.9 24.9
10:25 1024 30.24 853 25.19 5.5 42 51 -3.8 25.1
10:30 1024 30.24 853 25.19 6.1 43.1 48 -4 24.7
10:35 1024 30.24 853 25.19 6.7 44 48 -3.6 25.5
10:40 1024 30.24 853 25.19 7.2 44.9 45 -4 24.8
10:45 1024 30.24 853 25.19 7.5 45.4 45 -3.8 25.1
10:50 1024 30.24 853 25.19 7.4 45.4 44 -3.9 25
10:55 1024 30.24 853 25.19 7.5 45.5 44 -3.9 25.1
11:00 1024 30.24 853 25.19 7.7 45.9 43 -3.9 24.9
11:05 1024 30.24 853 25.19 7.9 46.1 43 -4 24.9
11:10 1024 30.24 853 25.19 8.2 46.8 43 -3.6 25.5
11:15 1024 30.24 853 25.19 8.8 47.8 41 -3.8 25.1
11:20 1024 30.24 853 25.19 9.5 49.1 41 -3.2 26.3
11:25 1024 30.24 853 25.19 10 50 38 -3.6 25.6
11:30 1024 30.24 853 25.19 10.2 50.3 38 -3.6 25.5
11:35 1024 30.24 853 25.19 10.1 50.1 38 -3.5 25.7
11:40 1024 30.24 853 25.19 10 50 40 -3 26.6
11:45 1024 30.24 853 25.19 10 50 42 -2.4 27.7
11:50 1024 30.24 853 25.19 9.5 49.1 42 -2.6 27.4
11:55 1024 30.24 853 25.19 9.1 48.4 43 -2.9 26.8
12:00 1024 30.24 853 25.19 9.2 48.6 42 -3.1 26.4
12:05 1024 30.24 853 25.19 9.7 49.5 40 -3.1 26.3
12:10 1024 30.24 853 25.19 9.8 49.6 42 -2.6 27.3
12:15 1024 30.24 853 25.19 9.7 49.5 42 -2.5 27.5
12:20 1024 30.24 853 25.19 9.8 49.6 40 -3.1 26.4
12:25 1024 30.24 853 25.19 9.8 49.6 42 -2.6 27.4
12:30 1023 30.21 853 25.19 9.8 49.6 40 -3.2 26.3
12:35 1023 30.21 853 25.19 10.5 50.9 37 -3.5 25.8
12:40 1023 30.21 853 25.19 10.8 51.5 38 -2.8 26.9
12:45 1023 30.21 852 25.16 10.6 51.1 39 -2.7 27.2
12:50 1023 30.21 852 25.16 11.2 52.1 35 -3.5 25.6
12:55 1023 30.21 852 25.16 12 53.6 33 -3.6 25.6
13:00 1023 30.21 852 25.16 12.3 54.1 32 -3.8 25.1
13:05 1023 30.21 852 25.16 11.5 52.6 35 -3.5 25.7
13:10 1023 30.21 852 25.16 10.8 51.4 37 -3.3 26.1
13:15 1023 30.21 852 25.16 11 51.8 38 -2.9 26.9
13:20 1023 30.21 852 25.16 11 51.8 35 -3.9 24.9
13:25 1023 30.21 852 25.16 11.8 53.3 37 -2.5 27.5
13:30 1022 30.18 852 25.16 11.1 51.9 37 -3 26.5
13:35 1022 30.18 852 25.16 10.7 51.3 36 -3.8 25.2
13:40 1022 30.18 851 25.13 11.3 52.4 34 -4 24.8
13:45 1022 30.18 851 25.13 11.2 52.2 36 -3.2 26.2
13:50 1022 30.18 851 25.13 11.1 51.9 36 -3.6 25.6
13:55 1022 30.18 851 25.13 12 53.6 33 -3.8 25.2
14:00 1022 30.18 851 25.13 12.4 54.2 34 -3.2 26.3
14:05 1022 30.18 851 25.13 12.9 55.3 31 -3.6 25.5
14:10 1022 30.18 851 25.13 12.7 54.8 33 -3.1 26.4
14:15 1022 30.18 851 25.13 12.6 54.6 33 -3.2 26.3
14:20 1021 30.15 851 25.13 12.5 54.4 33 -3.5 25.7
14:25 1021 30.15 851 25.13 13.3 55.9 31 -3.5 25.8
14:30 1021 30.15 851 25.13 13.5 56.3 32 -2.9 26.8
14:35 1021 30.15 851 25.13 13.7 56.7 30 -3.7 25.4
14:40 1021 30.15 850 25.1 14.4 57.8 29 -3.4 25.9
14:45 1021 30.15 850 25.1 14.3 57.7 29 -3.3 26
14:50 1021 30.15 850 25.1 14.4 57.9 29 -3.3 26
14:55 1021 30.15 850 25.1 14.6 58.2 29 -3.2 26.2
15:00 1021 30.15 850 25.1 14.5 58.1 31 -2.4 27.7
15:05 1021 30.15 850 25.1 14.9 58.9 29 -2.8 27
15:10 1021 30.15 850 25.1 15 59 30 -2.4 27.7
15:15 1021 30.15 850 25.1 15.1 59.1 29 -2.8 26.9
15:20 1021 30.15 850 25.1 15.2 59.4 29 -2.5 27.5
15:25 1021 30.15 850 25.1 15 59 31 -2 28.4
15:30 1021 30.15 850 25.1 14.9 58.8 30 -2.4 27.8
15:35 1021 30.15 850 25.1 14.7 58.5 31 -2 28.4
15:40 1021 30.15 850 25.1 13.8 56.8 34 -1.9 28.7
15:45 1021 30.15 850 25.1 13.2 55.7 35 -1.8 28.7
15:50 1021 30.15 850 25.1 13.4 56 35 -1.7 29
15:55 1020 30.12 850 25.1 13 55.4 36 -1.8 28.7
16:00 1020 30.12 850 25.1 13.7 56.7 32 -2.6 27.4
16:05 1020 30.12 850 25.1 14.1 57.4 32 -2.4 27.7
16:10 1020 30.12 850 25.1 13.8 56.9 34 -1.8 28.7
16:15 1020 30.12 850 25.1 13.5 56.2 32 -2.8 27
16:20 1020 30.12 850 25.1 13.9 57.1 32 -2.3 27.8
16:25 1020 30.12 850 25.1 13.7 56.6 33 -2.3 27.8
16:30 1020 30.12 850 25.1 13.3 55.9 33 -2.5 27.5
16:35 1020 30.12 850 25.1 13.3 56 33 -2.5 27.5
16:40 1020 30.12 849 25.07 13.1 55.6 35 -2.1 28.2
16:45 1020 30.12 849 25.07 13.2 55.8 33 -2.6 27.4
16:50 1020 30.12 849 25.07 13.7 56.6 32 -2.6 27.3
16:55 1020 30.12 849 25.07 13.7 56.6 33 -2.4 27.7
17:00 1020 30.12 849 25.07 14.1 57.4 32 -2.2 28.1
17:05 1020 30.12 849 25.07 14.1 57.4 33 -1.7 29
17:10 1020 30.12 849 25.07 13.7 56.7 34 -1.9 28.5
17:15 1020 30.12 849 25.07 13.6 56.5 34 -2.1 28.3
17:20 1020 30.12 849 25.07 13.7 56.6 34 -1.9 28.5
17:25 1020 30.12 849 25.07 13.7 56.6 33 -2.1 28.2
17:30 1020 30.12 849 25.07 13.8 56.8 33 -2.2 28.1
17:35 1020 30.12 849 25.07 13.7 56.6 34 -2 28.4
17:40 1020 30.12 849 25.07 13.8 56.8 33 -2 28.4
17:45 1020 30.12 849 25.07 13.6 56.6 33 -2.2 28.1
17:50 1020 30.12 849 25.07 13.3 55.9 35 -1.9 28.5
17:55 1020 30.12 849 25.07 13 55.4 34 -2.3 27.9
18:00 1020 30.12 849 25.07 12.2 53.9 36 -2.4 27.6
18:05 1020 30.12 849 25.07 11.6 52.9 38 -2.2 28.1
18:10 1020 30.12 849 25.07 11.1 51.9 39 -2.4 27.6
18:15 1020 30.12 849 25.07 10.8 51.5 39 -2.4 27.7
18:20 1020 30.12 849 25.07 10.7 51.3 41 -1.8 28.8
18:25 1020 30.12 849 25.07 10.7 51.2 42 -1.6 29.1
18:30 1020 30.12 849 25.07 10.5 50.9 43 -1.5 29.4
18:35 1020 30.12 849 25.07 10.4 50.7 44 -1.4 29.5
18:40 1020 30.12 849 25.07 10.2 50.4 46 -0.9 30.3
18:45 1020 30.12 849 25.07 10 50.1 45 -1.3 29.7
18:50 1020 30.12 849 25.07 9.9 49.9 46 -1.1 30.1
18:55 1020 30.12 849 25.07 9.7 49.4 47 -1 30.2
19:00 1020 30.12 849 25.07 9.1 48.4 49 -1 30.2
19:05 1020 30.12 849 25.07 8.9 47.9 47 -1.8 28.8
19:10 1020 30.12 849 25.07 8.7 47.7 45 -2.5 27.4
19:15 1020 30.12 849 25.07 8.7 47.6 44 -3 26.7
19:20 1020 30.12 849 25.07 8.3 46.9 45 -2.9 26.8
19:25 1020 30.12 849 25.07 8.4 47.1 44 -3.1 26.3
19:30 1020 30.12 849 25.07 8.7 47.7 46 -2.1 28.2
19:35 1020 30.12 849 25.07 8.9 47.9 45 -2.5 27.4
19:40 1020 30.12 849 25.07 8.7 47.6 48 -1.8 28.8
19:45 1020 30.12 849 25.07 8.7 47.6 45 -2.5 27.5
19:50 1020 30.12 849 25.07 8.3 46.9 50 -1.5 29.3
19:55 1020 30.12 849 25.07 8.5 47.2 46 -2.5 27.5
20:00 1020 30.12 849 25.07 8.7 47.6 45 -2.5 27.5
20:05 1020 30.12 849 25.07 8.1 46.7 48 -2.1 28.2
20:10 1020 30.12 849 25.07 7.8 46 48 -2.5 27.5
20:15 1020 30.12 849 25.07 7.6 45.6 50 -2.3 27.9
20:20 1020 30.12 849 25.07 7.6 45.7 49 -2.3 27.9
20:25 1020 30.12 849 25.07 7.7 45.9 50 -2.1 28.3
20:30 1020 30.12 849 25.07 7.8 46 49 -2.2 28.1
20:35 1020 30.12 849 25.07 7.8 46 49 -2.3 27.9
20:40 1020 30.12 849 25.07 8.4 47.1 47 -2.4 27.8
20:45 1020 30.12 849 25.07 8.3 46.9 46 -2.6 27.3
20:50 1020 30.12 849 25.07 7.3 45.2 49 -2.6 27.4
20:55 1020 30.12 849 25.07 6.6 43.8 50 -3.2 26.2
21:00 1020 30.12 849 25.07 6.3 43.3 49 -3.7 25.4
21:05 1020 30.12 849 25.07 5.9 42.6 52 -3.2 26.2
21:10 1020 30.12 849 25.07 5.9 42.6 48 -4.3 24.3
21:15 1020 30.12 849 25.07 7.2 44.9 46 -3.6 25.6
21:20 1020 30.12 849 25.07 7.3 45.1 48 -2.9 26.8
21:25 1020 30.12 849 25.07 6.7 44 51 -2.8 27
21:30 1020 30.12 849 25.07 6.4 43.4 50 -3.2 26.2
21:35 1020 30.12 849 25.07 6.2 43.2 51 -3.2 26.2
21:40 1020 30.12 849 25.07 6.2 43.2 50 -3.4 25.9
21:45 1020 30.12 849 25.07 6.2 43.2 50 -3.4 25.9
21:50 1020 30.12 849 25.07 6.2 43.1 50 -3.4 25.8
21:55 1020 30.12 849 25.07 6.6 43.9 48 -3.6 25.5
22:00 1020 30.12 849 25.07 6.6 43.8 49 -3.5 25.7
22:05 1020 30.12 849 25.07 6.5 43.8 48 -3.6 25.5
22:10 1020 30.12 849 25.07 6.6 44 47 -3.7 25.3
22:15 1020 30.12 849 25.07 6.5 43.8 48 -3.6 25.5
22:20 1020 30.12 849 25.07 6.5 43.6 47 -4 24.8
22:25 1020 30.12 849 25.07 6.6 43.9 47 -3.8 25.1
22:30 1020 30.12 849 25.07 6.6 43.9 47 -3.8 25.1
22:35 1020 30.12 849 25.07 6.6 43.8 47 -3.8 25.1
22:40 1020 30.12 849 25.07 6.3 43.4 48 -3.8 25.2
22:45 1020 30.12 849 25.07 6.3 43.4 48 -3.8 25.2
22:50 1020 30.12 849 25.07 6.3 43.4 47 -4 24.7
22:55 1020 30.12 849 25.07 6.5 43.8 48 -3.7 25.3
23:00 1020 30.12 849 25.07 6.3 43.3 49 -3.7 25.3
23:05 1020 30.12 849 25.07 6.6 43.8 47 -4 24.7
23:10 1020 30.12 849 25.07 6.9 44.4 46 -4 24.8
23:15 1020 30.12 849 25.07 7 44.5 45 -4.1 24.7
23:20 1020 30.12 849 25.07 7 44.6 45 -4.1 24.6
23:25 1020 30.12 849 25.07 7 44.6 45 -4.1 24.7
23:30 1020 30.12 849 25.07 7.1 44.8 44 -4.2 24.4
23:35 1020 30.12 849 25.07 7.1 44.8 45 -3.9 24.9
23:40 1020 30.12 849 25.07 6.4 43.5 48 -3.8 25.1
23:45 1020 30.12 849 25.07 5.9 42.6 49 -4 24.8
23:50 1020 30.12 849 25.07 5.9 42.7 48 -4.2 24.5
23:55 1020 30.12 849 25.07 6.2 43.1 47 -4.3 24.2
24:00 1020 30.12 849 25.07 6.4 43.6 46 -4.4 24